Gainesville Regional Airport
KGNV : now visible

Airfield :











YOU CAN JOIN US ON...

 
LOGIN :

Register | Disclaimer

   EN    FR    IT 

 









Legend :    VFR   Marginal VFR   IFR   Intensive IFR   Very Intensive IFR
Visi :
Ceiling :
>= 8 km
>= 3000ft
5 to 8 km
1000 to 3000 ft
1500m to 5 km
500 to 1000 ft
800 to 1500m
200 to 500 ft
< 800m
< 200 ft
Symbols :   Thunderstorms  Fog  Heavy snow  Heavy precipitations  Wind > 20 kt






- Airport Elevation : 152 ft
- IATA code : GNV


KGNV - Gainesville Regional

CURRENT METAR :
  • 280753Z AUTO 11004KT 10SM CLR 22/22 A3008 RMK AO2 SLP183 T02220222

EXPIRED METARs :
  • 280653Z AUTO 09005KT 10SM CLR 23/23 A3009 RMK AO2 SLP187 T02280228
  • 280622Z AUTO 10003KT 10SM FEW007 23/23 A3011 RMK AO2 T02280228
  • 280553Z AUTO 10005KT 10SM CLR 23/23 A3011 RMK AO2 SLP193 T02280228 10256 20228 58009

TAF KGNV
Valid from the 28 at 06:00 until the 29 at 06:00 UTC


280522Z 2806/2906 08004KT P6SM FEW009 BKN070 OVC100
TEMPO 2809/2813 5SM BR BKN009
FM281400 10010KT P6SM SCT025 BKN050
FM281900 13008KT P6SM VCSH SCT020 BKN050
FM290000 15007KT P6SM FEW029 SCT120
KZJX FIR / North America



MET'MAP, your aeronautical weather chart ! - Copyright ORBIFLY December 2007 - Disclaimer

ORBIFLY MET'MAP TEAM :

Programming & Development : Alexandra Zaïnal
Concept & original design : Baudouin d'Aumeries
Assistance for programming : Marc-Olivier Méhu
Technical & hardware support : Manuel Goepfert

Contact : metmap@orbifly.com




SOURCES & CREDITS :

   NOAA       Earth
Advisory